Latest Weather Observations for Rowley Shoals

IDW60801

Issued at 2:02 pm WST Thursday 2 April 2015 (issued every 30 minutes, with the page automatically refreshed every 10 minutes)

About weather observations | Map of weather stations | Latest weather observations for WA | Other Formats
Station Details ID: 200713 Name: ROWLEY SHOALS Lat: -17.52 Lon: 118.95 Height: 0.0 m
Data from the previous 72 hours. | See also: Recent months for locations in Western Australia
Date/Time
WST
Temp
°C
App
Temp
°C
Dew
Point
Rel
Hum
%
Delta-T
°C
Wind Press
QNH
hPa
Press
MSL
hPa
Rain
since 9 am
mm
Dir
 
Spd
km/h
Gust
km/h
Spd
kts
Gust
kts
02/02:00pm - - - - - SSE 24 32 13 17 1007.2 1007.2 -
02/01:30pm - - - - - S 20 28 11 15 1007.8 1007.8 -
02/01:00pm - - - - - S 24 30 13 16 1008.1 1008.0 -
02/12:30pm - - - - - S 28 37 15 20 1008.4 1008.4 -
02/12:00pm - - - - - SSW 30 35 16 19 1008.9 1008.7 -
02/11:30am - - - - - SSW 30 33 16 18 1009.2 1009.2 -
02/11:00am - - - - - SSW 30 35 16 19 1009.7 1009.5 -
02/10:30am - - - - - SSW 28 32 15 17 1010.1 1010.1 -
02/10:00am - - - - - SSW 26 32 14 17 1010.3 1010.1 -
02/09:30am - - - - - SSW 28 32 15 17 1010.2 1010.2 -
02/09:00am - - - - - SSW 24 30 13 16 1010.3 1010.1 -
02/08:30am - - - - - SSW 24 28 13 15 1010.4 1010.4 -
02/08:00am - - - - - SSW 22 24 12 13 1010.4 1010.3 -
02/07:30am - - - - - SSW 22 24 12 13 1010.4 1010.4 -
02/07:00am - - - - - SSW 22 26 12 14 1010.2 1010.2 -
02/06:30am - - - - - SSW 24 28 13 15 1010.1 1010.1 -
02/06:00am - - - - - SSW 22 26 12 14 1009.8 1009.7 -
02/05:30am - - - - - SSW 24 28 13 15 1009.6 1009.6 -
02/05:00am - - - - - SSW 26 30 14 16 1009.4 1009.3 -
02/04:30am - - - - - SSW 26 32 14 17 1009.0 1009.0 -
02/04:00am - - - - - SSW 26 30 14 16 1008.6 1008.7 -
02/03:30am - - - - - SW 28 30 15 16 1008.5 1008.5 -
02/03:00am - - - - - SW 28 32 15 17 1008.4 1008.3 -
02/02:30am - - - - - SW 28 32 15 17 1008.4 1008.4 -
02/02:00am - - - - - SW 28 32 15 17 1008.5 1008.4 -
02/01:30am - - - - - SW 26 30 14 16 1008.8 1008.8 -
02/01:00am - - - - - SW 26 30 14 16 1009.2 1009.0 -
02/12:30am - - - - - SW 26 30 14 16 1009.6 1009.6 -
02/12:00am - - - - - SW 28 32 15 17 1009.6 1009.6 -
 
Date/Time
WST
Temp
°C
App
Temp
°C
Dew
Point
Rel
Hum
%
Delta-T
°C
Wind Press
QNH
hPa
Press
MSL
hPa
Rain
since 9 am
mm
Dir
 
Spd
km/h
Gust
km/h
Spd
kts
Gust
kts
01/11:30pm - - - - - SW 28 32 15 17 1009.8 1009.8 -
01/11:00pm - - - - - SW 30 33 16 18 1010.0 1009.9 -
01/10:30pm - - - - - SW 30 33 16 18 1010.2 1010.2 -
01/10:00pm - - - - - SW 30 33 16 18 1010.2 1010.1 -
01/09:30pm - - - - - SW 28 32 15 17 1010.2 1010.2 -
01/09:00pm - - - - - SW 26 30 14 16 1010.2 1010.1 -
01/08:30pm - - - - - SW 24 26 13 14 1010.2 1010.2 -
01/08:00pm - - - - - SW 24 30 13 16 1010.3 1010.2 -
01/07:30pm - - - - - SSW 24 28 13 15 1010.1 1010.1 -
01/07:00pm - - - - - SSW 22 26 12 14 1009.9 1009.8 -
01/06:30pm - - - - - SSW 20 24 11 13 1009.8 1009.8 -
01/06:00pm - - - - - S 22 26 12 14 1009.6 1009.5 -
01/05:30pm - - - - - SSW 24 28 13 15 1009.5 1009.5 -
01/05:00pm - - - - - S 22 28 12 15 1009.5 1009.3 -
01/04:30pm - - - - - S 24 28 13 15 1009.6 1009.6 -
01/04:00pm - - - - - S 24 30 13 16 1009.5 1009.5 -
01/03:30pm - - - - - S 17 22 9 12 1009.6 1009.6 -
01/03:00pm - - - - - S 17 20 9 11 1009.9 1009.7 -
01/02:30pm - - - - - SSE 17 24 9 13 1010.2 1010.2 -
01/02:00pm - - - - - S 17 24 9 13 1010.5 1010.3 -
01/01:30pm - - - - - SSE 20 26 11 14 1010.9 1010.9 -
01/01:00pm - - - - - SSE 22 28 12 15 1011.1 1011.0 -
01/12:30pm - - - - - SSE 20 28 11 15 1011.3 1011.3 -
01/12:00pm - - - - - SSE 20 28 11 15 1011.8 1011.6 -
01/11:30am - - - - - SSE 20 28 11 15 1012.2 1012.2 -
01/11:00am - - - - - S 17 24 9 13 1012.6 1012.5 -
01/10:30am - - - - - S 17 24 9 13 1013.1 1013.1 -
01/10:00am - - - - - S 19 24 10 13 1013.5 1013.3 -
01/09:30am - - - - - S 19 24 10 13 1013.6 1013.6 -
01/09:00am - - - - - S 19 24 10 13 1013.5 1013.4 -
01/08:30am - - - - - S 24 32 13 17 1013.4 1013.4 -
01/08:00am - - - - - S 24 30 13 16 1013.1 1013.0 -
01/07:30am - - - - - S 22 30 12 16 1012.8 1012.8 -
01/07:00am - - - - - S 20 28 11 15 1012.5 1012.5 -
01/06:30am - - - - - S 19 24 10 13 1012.1 1012.1 -
01/06:00am - - - - - SSW 24 26 13 14 1012.0 1011.9 -
01/05:30am - - - - - SSW 24 26 13 14 1011.8 1011.8 -
01/05:00am - - - - - SSW 20 24 11 13 1011.4 1011.4 -
01/04:30am - - - - - SW 22 26 12 14 1011.3 1011.3 -
01/04:00am - - - - - SW 22 24 12 13 1011.1 1011.1 -
01/03:30am - - - - - SW 22 24 12 13 1011.1 1011.1 -
01/03:00am - - - - - SW 20 22 11 12 1011.1 1011.0 -
01/02:30am - - - - - SW 20 22 11 12 1011.2 1011.2 -
01/02:00am - - - - - SW 17 20 9 11 1011.5 1011.3 -
01/01:30am - - - - - SW 15 17 8 9 1011.7 1011.7 -
01/01:00am - - - - - SSW 17 20 9 11 1012.0 1011.8 -
01/12:30am - - - - - SSW 15 17 8 9 1012.2 1012.2 -
01/12:00am - - - - - SSW 17 20 9 11 1012.6 1012.4 -
 
Date/Time
WST
Temp
°C
App
Temp
°C
Dew
Point
Rel
Hum
%
Delta-T
°C
Wind Press
QNH
hPa
Press
MSL
hPa
Rain
since 9 am
mm
Dir
 
Spd
km/h
Gust
km/h
Spd
kts
Gust
kts
31/11:30pm - - - - - SSW 17 19 9 10 1012.9 1012.9 -
31/11:00pm - - - - - S 15 17 8 9 1013.2 1013.0 -
31/10:30pm - - - - - S 17 19 9 10 1013.4 1013.4 -
31/10:00pm - - - - - S 17 19 9 10 1013.6 1013.4 -
31/09:30pm - - - - - S 11 15 6 8 1013.6 1013.6 -
31/09:00pm - - - - - S 9 15 5 8 1013.6 1013.5 -
31/08:30pm - - - - - S 11 15 6 8 1013.3 1013.3 -
31/08:00pm - - - - - S 13 17 7 9 1012.9 1012.9 -
31/07:30pm - - - - - SSE 15 17 8 9 1012.6 1012.6 -
31/07:00pm - - - - - SSE 15 19 8 10 1012.3 1012.3 -
31/06:30pm - - - - - SSE 17 20 9 11 1012.1 1012.1 -
31/06:00pm - - - - - SSE 17 20 9 11 1011.9 1011.9 -
31/05:30pm - - - - - SSE 17 20 9 11 1011.6 1011.6 -
31/05:00pm - - - - - SSE 19 24 10 13 1011.6 1011.5 -
31/04:30pm - - - - - SSE 17 20 9 11 1011.4 1011.4 -
31/04:00pm - - - - - SE 19 20 10 11 1011.4 1011.2 -
31/03:30pm - - - - - SSE 19 22 10 12 1011.3 1011.3 -
31/03:00pm - - - - - SSE 19 22 10 12 1011.4 1011.3 -
31/02:30pm - - - - - SSE 19 20 10 11 1011.5 1011.5 -
31/02:00pm - - - - - SSE 17 20 9 11 1011.6 1011.4 -
31/01:30pm - - - - - SSE 17 20 9 11 1011.8 1011.8 -
31/01:00pm - - - - - S 13 22 7 12 1012.0 1011.9 -
31/12:30pm - - - - - S 13 22 7 12 1012.3 1012.3 -
31/12:00pm - - - - - S 15 20 8 11 1012.6 1012.4 -
31/11:30am - - - - - S 11 17 6 9 1013.1 1013.1 -
31/11:00am - - - - - S 13 15 7 8 1013.5 1013.3 -
31/10:30am - - - - - S 9 13 5 7 1013.7 1013.7 -
31/10:00am - - - - - S 11 11 6 6 1013.8 1013.7 -
31/09:30am - - - - - S 11 15 6 8 1014.0 1014.0 -
31/09:00am - - - - - S 13 17 7 9 1013.9 1013.9 -
31/08:30am - - - - - SSW 13 15 7 8 1013.9 1013.9 -
31/08:00am - - - - - SSW 13 15 7 8 1013.7 1013.7 -
31/07:30am - - - - - SSW 15 17 8 9 1013.7 1013.7 -
31/07:00am - - - - - SW 13 17 7 9 1013.6 1013.5 -
31/06:30am - - - - - SW 11 13 6 7 1013.4 1013.4 -
31/06:00am - - - - - SW 13 17 7 9 1013.1 1013.0 -
31/05:30am - - - - - SW 11 13 6 7 1012.8 1012.8 -
31/05:00am - - - - - SW 11 15 6 8 1012.6 1012.5 -
31/04:30am - - - - - SW 11 13 6 7 1012.3 1012.3 -
31/04:00am - - - - - SW 11 13 6 7 1012.2 1012.1 -
31/03:30am - - - - - SW 9 11 5 6 1012.1 1012.1 -
31/03:00am - - - - - W 7 9 4 5 1012.2 1012.0 -
31/02:30am - - - - - NW 6 9 3 5 1012.1 1012.1 -
31/02:00am - - - - - NNW 6 7 3 4 1012.1 1012.0 -
31/01:30am - - - - - N 7 9 4 5 1012.2 1012.2 -
31/01:00am - - - - - N 7 9 4 5 1012.4 1012.3 -
31/12:30am - - - - - NNE 7 9 4 5 1012.6 1012.6 -
31/12:00am - - - - - ENE 6 6 3 3 1013.1 1012.8 -
 
Date/Time
WST
Temp
°C
App
Temp
°C
Dew
Point
Rel
Hum
%
Delta-T
°C
Wind Press
QNH
hPa
Press
MSL
hPa
Rain
since 9 am
mm
Dir
 
Spd
km/h
Gust
km/h
Spd
kts
Gust
kts
30/11:30pm - - - - - ENE 2 6 1 3 1013.5 1013.5 -
30/11:00pm - - - - - ENE 6 6 3 3 1013.6 1013.5 -
30/10:30pm - - - - - ENE 7 9 4 5 1013.8 1013.8 -
30/10:00pm - - - - - CALM 0 0 0 0 1014.0 1013.9 -
30/09:30pm - - - - - CALM 0 4 0 2 1014.0 1014.0 -
30/09:00pm - - - - - NW 4 6 2 3 1014.2 1014.0 -
30/08:30pm - - - - - CALM 0 0 0 0 1014.1 1014.1 -
30/08:00pm - - - - - CALM 0 4 0 2 1013.6 1013.7 -
30/07:30pm - - - - - NW 7 9 4 5 1013.1 1013.1 -
30/07:00pm - - - - - N 7 9 4 5 1012.6 1012.7 -
30/06:30pm - - - - - N 9 11 5 6 1012.3 1012.3 -
30/06:00pm - - - - - N 11 13 6 7 1011.9 1012.0 -
30/05:30pm - - - - - NNE 13 15 7 8 1011.7 1011.7 -
30/05:00pm - - - - - N 15 17 8 9 1011.5 1011.3 -
30/04:30pm - - - - - NNE 17 20 9 11 1011.2 1011.2 -
30/04:00pm - - - - - NNE 19 20 10 11 1010.8 1010.9 -
30/03:30pm - - - - - NE 20 24 11 13 1010.6 1010.6 -
30/03:00pm - - - - - NNE 20 24 11 13 1010.5 1010.4 -
30/02:30pm - - - - - NNE 20 22 11 12 1010.6 1010.6 -

Other Formats:

Comma delimited format used in spreadsheet applications
http://www.bom.gov.au/fwo/IDW60801/IDW60801.94207.axf

JavaScript Object Notation format (JSON) in row-major order
http://www.bom.gov.au/fwo/IDW60801/IDW60801.94207.json